Time;durP1;ratioP1;P1;durP2;ratioP2;P2;SDS_P1;SDS_P2;PMS_P1;PMS_P2;Temp;Humidity;BMP_temperature;BMP_pressure;BME280_temperature;BME280_humidity;BME280_pressure;Samples;Min_cycle;Max_cycle;Signal;HPM_P1;HPM_P2
2024/03/19 00:00:49;;;;;;;29.20;22.08;;;308.00;2304.00;;;;;;4995215;28;20026;-73
2024/03/19 00:03:15;;;;;;;28.15;22.90;;;308.00;2304.00;;;;;;4995809;28;20061;-73
2024/03/19 00:05:41;;;;;;;29.27;21.80;;;308.00;2304.00;;;;;;4993885;28;20023;-74
2024/03/19 00:08:07;;;;;;;101.97;69.28;;;308.00;2304.00;;;;;;4994020;28;20108;-73
2024/03/19 00:10:33;;;;;;;29.40;20.20;;;308.00;2304.00;;;;;;4993869;28;20115;-73
2024/03/19 00:12:59;;;;;;;39.90;25.50;;;308.00;2304.00;;;;;;4980884;28;20066;-72
2024/03/19 00:15:25;;;;;;;29.17;21.48;;;308.00;2304.00;;;;;;5009206;28;20084;-73
2024/03/19 00:17:52;;;;;;;22.27;17.48;;;308.10;2304.00;;;;;;5027509;28;20124;-73
2024/03/19 00:20:21;;;;;;;20.92;14.43;;;308.00;2304.00;;;;;;5029437;28;20021;-73
2024/03/19 00:22:48;;;;;;;19.80;14.23;;;308.00;2304.00;;;;;;5018536;28;20021;-73
2024/03/19 00:25:17;;;;;;;20.92;14.38;;;307.90;2304.00;;;;;;5024392;28;20033;-73
2024/03/19 00:27:43;;;;;;;118.28;66.30;;;307.90;2304.00;;;;;;5010742;28;20436;-72
2024/03/19 00:30:09;;;;;;;27.05;17.98;;;307.90;2304.00;;;;;;5010078;28;20048;-72
2024/03/19 00:32:39;;;;;;;73.40;42.70;;;308.00;2304.00;;;;;;5005451;28;20040;-73
2024/03/19 00:35:09;;;;;;;56.22;37.55;;;307.90;2304.00;;;;;;5028384;28;20560;-74
2024/03/19 00:37:39;;;;;;;21.83;15.43;;;307.90;2304.00;;;;;;5023709;28;20375;-73
2024/03/19 00:40:12;;;;;;;30.23;20.55;;;308.00;2304.00;;;;;;4985484;28;20400;-73
2024/03/19 00:42:43;;;;;;;43.58;27.75;;;308.00;2304.00;;;;;;4997318;28;20014;-74
2024/03/19 00:45:09;;;;;;;26.85;15.35;;;307.90;2304.00;;;;;;4993891;28;20499;-73
2024/03/19 00:47:36;;;;;;;132.98;84.30;;;308.00;2304.00;;;;;;5002042;28;20105;-74
2024/03/19 00:50:03;;;;;;;46.58;27.30;;;307.90;2304.00;;;;;;5029706;28;20562;-73
2024/03/19 00:52:28;;;;;;;25.00;17.58;;;307.90;2304.00;;;;;;5016382;28;20388;-73
2024/03/19 00:54:54;;;;;;;16.88;11.95;;;308.00;2304.00;;;;;;5003938;28;20026;-73
2024/03/19 00:57:23;;;;;;;15.90;11.77;;;308.00;2304.00;;;;;;5010411;28;20129;-73
2024/03/19 00:59:49;;;;;;;32.13;18.85;;;307.90;2304.00;;;;;;5009626;28;20468;-73
2024/03/19 01:02:15;;;;;;;19.35;12.25;;;308.00;2304.00;;;;;;4996930;28;20038;-73
2024/03/19 01:04:40;;;;;;;17.77;12.23;;;308.00;2304.00;;;;;;5010603;28;20038;-74
2024/03/19 01:07:06;;;;;;;15.82;9.63;;;308.00;2304.00;;;;;;5010134;28;20542;-74
2024/03/19 01:09:33;;;;;;;17.60;10.80;;;308.00;2304.00;;;;;;4992523;28;20044;-74
2024/03/19 01:11:58;;;;;;;19.23;12.90;;;307.90;2304.00;;;;;;5010166;28;20018;-74
2024/03/19 01:14:24;;;;;;;23.23;16.13;;;307.90;2304.00;;;;;;5009956;28;20029;-74
2024/03/19 01:16:50;;;;;;;18.75;15.82;;;307.90;2304.00;;;;;;5009917;28;20018;-73
2024/03/19 01:19:16;;;;;;;20.15;12.95;;;307.80;2304.00;;;;;;4993195;28;20121;-74
2024/03/19 01:21:42;;;;;;;15.85;12.10;;;307.80;2304.00;;;;;;5009628;28;20034;-74
2024/03/19 01:24:08;;;;;;;16.10;10.25;;;307.80;2304.00;;;;;;5010226;28;20037;-74
2024/03/19 01:26:34;;;;;;;20.60;12.63;;;307.60;2304.00;;;;;;5009698;28;20030;-74
2024/03/19 01:29:00;;;;;;;16.83;11.65;;;307.70;2304.00;;;;;;5009835;28;20032;-73
2024/03/19 01:31:28;;;;;;;16.02;10.88;;;307.60;2304.00;;;;;;5009641;28;20116;-73
2024/03/19 01:33:55;;;;;;;25.50;12.65;;;307.70;2304.00;;;;;;5009617;28;20025;-74
2024/03/19 01:36:21;;;;;;;15.85;13.32;;;307.70;2304.00;;;;;;5009849;28;20436;-74
2024/03/19 01:38:47;;;;;;;14.23;9.05;;;307.70;2304.00;;;;;;5009600;28;20061;-74
2024/03/19 01:41:16;;;;;;;25.65;17.13;;;307.70;2304.00;;;;;;5009430;28;20064;-73
2024/03/19 01:43:45;;;;;;;25.15;22.75;;;307.70;2304.00;;;;;;5009370;28;20029;-74
2024/03/19 01:46:29;;;;;;;19.50;14.00;;;307.70;2304.00;;;;;;5009090;28;20132;-74
2024/03/19 01:48:58;;;;;;;14.90;10.07;;;307.70;2304.00;;;;;;5009494;28;20022;-74
2024/03/19 01:51:25;;;;;;;19.75;13.10;;;307.60;2304.00;;;;;;5009475;28;20018;-73
2024/03/19 01:53:52;;;;;;;34.70;19.85;;;307.60;2304.00;;;;;;5009242;28;20017;-73
2024/03/19 01:56:19;;;;;;;47.80;27.10;;;307.60;2304.00;;;;;;5008707;28;20042;-74
2024/03/19 01:58:48;;;;;;;21.88;14.90;;;307.50;2304.00;;;;;;5008998;28;20026;-73
2024/03/19 02:01:15;;;;;;;29.67;18.05;;;307.40;2304.00;;;;;;5008708;28;20053;-72
2024/03/19 02:03:43;;;;;;;18.85;12.05;;;307.40;2304.00;;;;;;5009308;28;20025;-73
2024/03/19 02:06:09;;;;;;;20.65;14.05;;;307.40;2304.00;;;;;;5009021;28;20089;-72
2024/03/19 02:08:35;;;;;;;14.45;10.70;;;307.50;2304.00;;;;;;5009334;28;20029;-73
2024/03/19 02:11:01;;;;;;;31.67;17.92;;;307.50;2304.00;;;;;;5008934;28;20468;-76
2024/03/19 02:13:27;;;;;;;15.38;10.52;;;307.40;2304.00;;;;;;5009278;28;20052;-74
2024/03/19 02:15:53;;;;;;;17.88;8.50;;;307.40;2304.00;;;;;;5008712;28;20112;-74
2024/03/19 02:18:19;;;;;;;14.93;9.32;;;307.40;2304.00;;;;;;5009043;28;20439;-73
2024/03/19 02:20:45;;;;;;;18.13;11.57;;;307.40;2304.00;;;;;;5008701;28;20028;-74
2024/03/19 02:23:11;;;;;;;14.98;10.18;;;307.40;2304.00;;;;;;5009301;28;20018;-73
2024/03/19 02:25:36;;;;;;;14.55;9.07;;;307.40;2304.00;;;;;;5008905;28;20022;-74
2024/03/19 02:28:03;;;;;;;19.30;12.15;;;307.50;2304.00;;;;;;5008783;28;20026;-74
2024/03/19 02:30:29;;;;;;;14.40;9.07;;;307.40;2304.00;;;;;;5008172;28;20414;-73
2024/03/19 02:32:55;;;;;;;11.52;7.70;;;307.40;2304.00;;;;;;5008980;28;20029;-75
2024/03/19 02:35:21;;;;;;;14.52;8.60;;;307.30;2304.00;;;;;;5008498;28;20097;-74
2024/03/19 02:37:47;;;;;;;21.42;19.20;;;307.30;2304.00;;;;;;5008803;28;20026;-73
2024/03/19 02:40:13;;;;;;;17.95;10.90;;;307.30;2304.00;;;;;;5008619;28;20033;-73
2024/03/19 02:42:39;;;;;;;13.35;10.13;;;307.30;2304.00;;;;;;5009056;28;20026;-72
2024/03/19 02:45:05;;;;;;;22.05;16.30;;;307.30;2304.00;;;;;;5008595;28;20033;-74
2024/03/19 02:47:31;;;;;;;14.23;9.82;;;307.20;2304.00;;;;;;5008719;28;20029;-73
2024/03/19 02:49:57;;;;;;;14.15;9.32;;;307.30;2304.00;;;;;;5008708;28;20026;-73
2024/03/19 02:52:23;;;;;;;12.93;8.02;;;307.20;2304.00;;;;;;5008607;28;20055;-72
2024/03/19 02:54:49;;;;;;;10.02;6.63;;;307.20;2304.00;;;;;;5008545;28;20112;-72
2024/03/19 02:57:14;;;;;;;12.77;8.18;;;307.20;2304.00;;;;;;5008370;28;20045;-73
2024/03/19 02:59:40;;;;;;;11.75;8.45;;;307.20;2304.00;;;;;;5008850;28;20026;-75
2024/03/19 03:02:06;;;;;;;13.65;7.50;;;307.20;2304.00;;;;;;5008692;28;20025;-74
2024/03/19 03:04:32;;;;;;;14.05;9.48;;;307.20;2304.00;;;;;;5008463;28;20037;-73
2024/03/19 03:06:58;;;;;;;23.60;9.77;;;307.20;2304.00;;;;;;5008352;28;20029;-73
2024/03/19 03:09:24;;;;;;;14.18;9.68;;;307.20;2304.00;;;;;;5011235;28;20026;-73
2024/03/19 03:11:49;;;;;;;11.98;8.40;;;307.20;2304.00;;;;;;5012286;28;20607;-73
2024/03/19 03:14:15;;;;;;;16.10;9.05;;;307.20;2304.00;;;;;;5012444;28;20034;-73
2024/03/19 03:16:41;;;;;;;13.02;9.05;;;282.50;2278.40;;;;;;5011940;28;20107;-73
2024/03/19 03:19:07;;;;;;;12.23;8.75;;;307.20;2304.00;;;;;;5012454;28;20034;-74
2024/03/19 03:21:33;;;;;;;16.15;8.48;;;282.50;2278.40;;;;;;5011732;28;20097;-73
2024/03/19 03:23:59;;;;;;;12.80;8.60;;;282.50;2278.40;;;;;;5012202;28;20036;-73
2024/03/19 03:26:25;;;;;;;15.48;12.15;;;282.50;2278.40;;;;;;5011782;28;20033;-73
2024/03/19 03:28:51;;;;;;;15.80;11.15;;;282.40;2278.40;;;;;;5012240;28;20384;-73
2024/03/19 03:31:17;;;;;;;17.05;9.68;;;282.40;2278.40;;;;;;5011782;28;20034;-74
2024/03/19 03:33:43;;;;;;;19.58;9.88;;;282.40;2278.40;;;;;;5012110;28;20034;-74
2024/03/19 03:36:08;;;;;;;11.70;9.23;;;282.40;2278.40;;;;;;5012192;28;20037;-73
2024/03/19 03:38:34;;;;;;;13.68;8.65;;;282.40;2278.40;;;;;;5011748;28;20041;-73
2024/03/19 03:41:07;;;;;;;12.00;8.35;;;282.40;2278.40;;;;;;5011958;28;20486;-74
2024/03/19 03:43:33;;;;;;;14.52;8.70;;;282.30;2278.40;;;;;;5011516;28;20025;-74
2024/03/19 03:45:59;;;;;;;12.32;8.93;;;282.40;2278.40;;;;;;5011712;28;20364;-73
2024/03/19 03:48:25;;;;;;;12.90;10.10;;;282.40;2278.40;;;;;;5011616;28;20130;-73
2024/03/19 03:50:51;;;;;;;12.43;8.80;;;282.30;2278.40;;;;;;5011500;28;20034;-73
2024/03/19 03:53:17;;;;;;;11.15;9.10;;;282.30;2278.40;;;;;;5011820;28;20495;-73
2024/03/19 03:55:42;;;;;;;15.93;10.85;;;282.20;2278.40;;;;;;5011456;28;20033;-73
2024/03/19 03:58:08;;;;;;;16.73;13.10;;;282.20;2278.40;;;;;;5011585;28;20048;-74
2024/03/19 04:00:34;;;;;;;15.82;12.23;;;282.20;2278.40;;;;;;5011377;28;20025;-73
2024/03/19 04:03:01;;;;;;;16.88;13.68;;;282.30;2278.40;;;;;;5011685;28;20383;-73
2024/03/19 04:05:27;;;;;;;20.67;11.55;;;282.30;2278.40;;;;;;5011373;28;20026;-74
2024/03/19 04:07:52;;;;;;;12.52;9.18;;;282.30;2278.40;;;;;;5011245;28;20345;-73
2024/03/19 04:10:18;;;;;;;12.75;9.27;;;282.20;2278.40;;;;;;5011546;28;20076;-74
2024/03/19 04:12:44;;;;;;;15.02;10.07;;;282.20;2278.40;;;;;;5011192;28;20022;-73
2024/03/19 04:15:11;;;;;;;15.93;9.70;;;282.20;2278.40;;;;;;5011195;28;20018;-73
2024/03/19 04:17:40;;;;;;;10.43;8.57;;;282.20;2278.40;;;;;;5011214;28;20076;-73
2024/03/19 04:20:15;;;;;;;11.52;9.93;;;282.10;2278.40;;;;;;5010724;28;20013;-73
2024/03/19 04:22:42;;;;;;;17.08;9.25;;;282.10;2278.40;;;;;;5011296;28;20475;-74
2024/03/19 04:25:09;;;;;;;16.25;10.13;;;282.10;2278.40;;;;;;5011218;28;20025;-73
2024/03/19 04:27:36;;;;;;;15.43;9.55;;;282.10;2278.40;;;;;;5010894;28;20014;-74
2024/03/19 04:30:03;;;;;;;20.30;10.80;;;282.10;2278.40;;;;;;5010604;28;20606;-74
2024/03/19 04:32:28;;;;;;;15.57;9.15;;;282.00;2278.40;;;;;;5010976;28;20044;-74
2024/03/19 04:34:54;;;;;;;28.40;25.50;;;282.10;2278.40;;;;;;5010804;28;20026;-73
2024/03/19 04:37:20;;;;;;;23.60;14.48;;;282.00;2278.40;;;;;;5010793;28;20018;-74
2024/03/19 04:39:46;;;;;;;17.30;10.68;;;282.00;2278.40;;;;;;4993095;28;20120;-73
2024/03/19 04:42:15;;;;;;;11.07;8.70;;;282.00;2278.40;;;;;;4992587;28;20048;-73
2024/03/19 04:44:42;;;;;;;12.82;9.60;;;281.90;2278.40;;;;;;5010667;28;20561;-73
2024/03/19 04:47:08;;;;;;;14.18;9.25;;;281.70;2278.40;;;;;;5010659;28;20079;-73
2024/03/19 04:49:34;;;;;;;12.98;9.95;;;281.90;2278.40;;;;;;5010305;28;20057;-73
2024/03/19 04:52:00;;;;;;;17.25;10.88;;;281.80;2278.40;;;;;;5010791;28;20096;-72
2024/03/19 04:54:26;;;;;;;14.50;9.35;;;281.70;2278.40;;;;;;5010219;28;20072;-74
2024/03/19 04:56:52;;;;;;;16.98;9.43;;;281.70;2278.40;;;;;;4992350;28;20034;-74
2024/03/19 04:59:18;;;;;;;14.55;9.57;;;281.70;2278.40;;;;;;5010218;28;20419;-73
2024/03/19 05:01:44;;;;;;;17.08;9.55;;;281.70;2278.40;;;;;;5009915;28;20080;-73
2024/03/19 05:04:10;;;;;;;18.17;10.77;;;281.70;2278.40;;;;;;5010513;28;20034;-74
2024/03/19 05:06:36;;;;;;;16.73;9.88;;;281.80;2278.40;;;;;;5010042;28;20018;-74
2024/03/19 05:09:02;;;;;;;19.10;10.98;;;281.60;2278.40;;;;;;5010148;28;20460;-73
2024/03/19 05:11:28;;;;;;;16.30;10.68;;;281.70;2278.40;;;;;;5009888;28;20072;-73
2024/03/19 05:13:54;;;;;;;17.20;11.10;;;281.60;2278.40;;;;;;5009821;28;20030;-73
2024/03/19 05:16:19;;;;;;;20.45;12.27;;;281.60;2278.40;;;;;;5009968;28;20017;-73
2024/03/19 05:18:45;;;;;;;16.27;10.88;;;256.90;2252.80;;;;;;5009651;28;20366;-73
2024/03/19 05:21:11;;;;;;;14.30;9.80;;;281.60;2278.40;;;;;;5010120;28;20404;-73
2024/03/19 05:23:37;;;;;;;17.52;11.38;;;281.60;2278.40;;;;;;5010436;28;20105;-74
2024/03/19 05:26:04;;;;;;;16.10;9.80;;;281.70;2278.40;;;;;;5009793;28;20468;-73
2024/03/19 05:28:29;;;;;;;20.15;11.15;;;281.60;2278.40;;;;;;5009907;28;20101;-73
2024/03/19 05:30:55;;;;;;;16.17;11.10;;;256.90;2252.80;;;;;;4990941;28;20120;-73
2024/03/19 05:33:21;;;;;;;18.92;10.82;;;281.60;2278.40;;;;;;5010039;28;20101;-74
2024/03/19 05:35:47;;;;;;;16.02;9.73;;;281.70;2278.40;;;;;;5010033;28;20018;-72
2024/03/19 05:38:13;;;;;;;17.13;10.57;;;281.70;2278.40;;;;;;5009447;28;20113;-73
2024/03/19 05:40:39;;;;;;;17.33;10.07;;;281.80;2278.40;;;;;;5010073;28;20030;-73
2024/03/19 05:43:06;;;;;;;30.23;25.88;;;281.90;2278.40;;;;;;5009447;28;20109;-73
2024/03/19 05:45:33;;;;;;;14.13;10.02;;;282.00;2278.40;;;;;;5009091;28;20377;-73
2024/03/19 05:48:02;;;;;;;20.85;12.50;;;282.00;2278.40;;;;;;5006894;28;20425;-74
2024/03/19 05:50:29;;;;;;;16.02;10.95;;;282.00;2278.40;;;;;;5011677;28;20366;-72
2024/03/19 05:52:55;;;;;;;18.60;12.93;;;282.00;2278.40;;;;;;5005907;28;20034;-73
2024/03/19 05:55:21;;;;;;;20.50;11.23;;;282.00;2278.40;;;;;;5009430;28;20036;-73
2024/03/19 05:57:47;;;;;;;16.05;9.70;;;282.00;2278.40;;;;;;5009139;28;20515;-72
2024/03/19 06:00:14;;;;;;;19.40;13.77;;;282.20;2278.40;;;;;;5009012;28;20018;-73
2024/03/19 06:02:40;;;;;;;20.83;12.68;;;282.50;2278.40;;;;;;5007957;28;20032;-72
2024/03/19 06:05:08;;;;;;;24.30;15.65;;;307.20;2304.00;;;;;;5001054;28;20514;-72
2024/03/19 06:07:33;;;;;;;15.75;10.70;;;307.50;2304.00;;;;;;5009094;28;20044;-73
2024/03/19 06:09:59;;;;;;;26.27;14.90;;;307.60;2304.00;;;;;;5009268;28;20018;-72
2024/03/19 06:12:25;;;;;;;15.77;10.55;;;333.20;2304.00;;;;;;4991082;28;20030;-73
2024/03/19 06:14:51;;;;;;;16.65;11.63;;;358.70;2201.60;;;;;;5008624;28;20101;-74
2024/03/19 06:17:17;;;;;;;17.48;12.48;;;384.40;2099.20;;;;;;5008969;28;20030;-74
2024/03/19 06:19:42;;;;;;;24.50;14.55;;;410.00;2022.40;;;;;;5008947;28;20034;-74
2024/03/19 06:22:08;;;;;;;15.85;11.55;;;410.20;1971.20;;;;;;5018569;28;20032;-73
2024/03/19 06:24:34;;;;;;;26.13;16.30;;;384.90;1971.20;;;;;;5008926;28;20022;-73
2024/03/19 06:27:00;;;;;;;19.77;12.38;;;384.60;1996.80;;;;;;5008905;28;20379;-73
2024/03/19 06:29:26;;;;;;;16.92;12.23;;;384.60;1996.80;;;;;;5008467;28;20129;-73
2024/03/19 06:31:52;;;;;;;30.60;17.08;;;409.80;1971.20;;;;;;5008764;28;20674;-73
2024/03/19 06:34:18;;;;;;;33.63;19.95;;;410.00;1945.60;;;;;;5008831;28;20629;-73
2024/03/19 06:36:44;;;;;;;140.38;89.30;;;410.50;1894.40;;;;;;5008697;28;20104;-72
2024/03/19 06:39:15;;;;;;;68.03;48.25;;;435.80;1817.60;;;;;;5008911;28;20141;-73
2024/03/19 06:41:41;;;;;;;115.90;91.90;;;436.10;1817.60;;;;;;5008922;28;20025;-73
2024/03/19 06:44:07;;;;;;;83.28;61.92;;;435.20;1843.20;;;;;;5012520;28;20018;-73
2024/03/19 06:46:33;;;;;;;24.25;18.92;;;410.50;1843.20;;;;;;5012867;28;20076;-73
2024/03/19 06:48:59;;;;;;;73.15;65.40;;;435.40;1817.60;;;;;;5017909;28;20025;-72
2024/03/19 06:51:26;;;;;;;24.02;20.58;;;435.90;1766.40;;;;;;5013023;28;20053;-73
2024/03/19 06:53:52;;;;;;;85.03;76.88;;;461.20;1715.20;;;;;;5012464;28;20038;-72
2024/03/19 06:56:17;;;;;;;23.05;18.08;;;461.70;1689.60;;;;;;5013088;28;20465;-72
2024/03/19 06:58:44;;;;;;;36.80;21.92;;;486.80;1664.00;;;;;;5012717;28;20383;-72
2024/03/19 07:01:10;;;;;;;15.05;10.32;;;487.10;1587.20;;;;;;5012590;28;20053;-73
2024/03/19 07:03:36;;;;;;;14.57;11.02;;;512.20;1561.60;;;;;;5012483;28;20034;-73
2024/03/19 07:06:03;;;;;;;16.42;12.13;;;487.00;1561.60;;;;;;5012643;28;20534;-73
2024/03/19 07:08:30;;;;;;;12.98;9.13;;;487.00;1561.60;;;;;;5012373;28;20476;-73
2024/03/19 07:10:57;;;;;;;14.30;10.52;;;512.90;1459.20;;;;;;5012714;28;20033;-73
2024/03/19 07:13:24;;;;;;;22.98;16.65;;;538.20;1484.80;;;;;;5012075;28;20041;-73
2024/03/19 07:15:49;;;;;;;14.18;10.50;;;563.90;1433.60;;;;;;5012639;28;20460;-74
2024/03/19 07:18:15;;;;;;;12.23;9.52;;;563.90;1433.60;;;;;;4993890;28;20064;-73
2024/03/19 07:20:43;;;;;;;23.70;13.85;;;512.60;1433.60;;;;;;5012936;28;20028;-73
2024/03/19 07:23:09;;;;;;;14.88;11.15;;;;;;;;;;5012240;28;20100;-73
2024/03/19 07:25:35;;;;;;;14.57;11.45;;;486.90;1484.80;;;;;;5008724;28;20061;-72
2024/03/19 07:28:02;;;;;;;13.95;10.25;;;;;;;;;;5014232;28;20119;-74
2024/03/19 07:30:28;;;;;;;14.07;11.07;;;;;;;;;;5011670;28;20058;-75
2024/03/19 07:32:55;;;;;;;13.77;10.38;;;;;;;;;;5006671;28;20106;-80
2024/03/19 07:35:22;;;;;;;12.02;8.82;;;;;;;;;;5019520;28;20030;-77
2024/03/19 07:37:51;;;;;;;14.05;8.85;;;436.10;1587.20;;;;;;5004484;28;20034;-79
2024/03/19 07:40:20;;;;;;;18.40;9.98;;;;;;;;;;5013723;28;20030;-74
2024/03/19 07:42:49;;;;;;;13.93;9.75;;;;;;;;;;5011378;28;20433;-75
2024/03/19 07:45:16;;;;;;;14.23;11.32;;;487.00;1536.00;;;;;;5011818;28;20075;-75
2024/03/19 07:47:42;;;;;;;19.52;13.70;;;;;;;;;;5012243;28;20025;-75
2024/03/19 07:50:10;;;;;;;22.80;14.07;;;;;;;;;;5014158;28;20048;-79
2024/03/19 07:52:36;;;;;;;17.42;12.68;;;;;;;;;;4997499;28;20027;-80
2024/03/19 07:55:04;;;;;;;14.20;10.93;;;461.70;1536.00;;;;;;5017301;28;20380;-81
2024/03/19 07:57:30;;;;;;;22.77;16.00;;;461.00;1638.40;;;;;;5002291;28;20030;-81
2024/03/19 07:59:58;;;;;;;60.08;45.00;;;460.80;1638.40;;;;;;5011526;28;20037;-84
2024/03/19 08:02:24;;;;;;;54.40;42.95;;;435.30;1638.40;;;;;;5011560;28;20041;-82
2024/03/19 08:04:50;;;;;;;54.28;40.55;;;435.30;1638.40;;;;;;5012036;28;20082;-80
2024/03/19 08:07:17;;;;;;;95.45;80.15;;;409.70;1715.20;;;;;;5014623;28;20030;-82
2024/03/19 08:09:43;;;;;;;23.45;16.92;;;384.70;1689.60;;;;;;5019602;28;20026;-82
2024/03/19 08:12:09;;;;;;;42.95;30.98;;;384.10;1715.20;;;;;;5011566;28;20022;-81
2024/03/19 08:14:35;;;;;;;36.45;31.58;;;359.00;1740.80;;;;;;5007073;28;20030;-69
2024/03/19 08:17:02;;;;;;;25.50;15.40;;;358.80;1740.80;;;;;;5017930;28;20255;-68
2024/03/19 08:19:29;;;;;;;27.35;21.25;;;359.10;1715.20;;;;;;5011469;28;20042;-68
2024/03/19 08:21:55;;;;;;;15.02;11.65;;;359.30;1715.20;;;;;;5011289;28;20484;-69
2024/03/19 08:24:20;;;;;;;15.23;10.65;;;384.70;1638.40;;;;;;5011283;28;20111;-71
2024/03/19 08:26:46;;;;;;;20.27;13.65;;;384.20;1664.00;;;;;;5011081;28;20148;-77
2024/03/19 08:29:12;;;;;;;13.25;9.68;;;384.00;1638.40;;;;;;5010696;28;20372;-70
2024/03/19 08:31:38;;;;;;;16.90;11.32;;;410.50;1561.60;;;;;;5011146;28;20560;-76
2024/03/19 08:34:04;;;;;;;18.15;11.32;;;486.50;1484.80;;;;;;5010857;28;20116;-70
2024/03/19 08:36:32;;;;;;;11.15;9.45;;;563.30;1356.80;;;;;;5010833;28;20112;-79
2024/03/19 08:38:58;;;;;;;12.77;9.27;;;588.90;1305.60;;;;;;5000805;28;20041;-69
2024/03/19 08:41:24;;;;;;;10.55;8.88;;;614.70;1203.20;;;;;;4995897;28;20026;-72
2024/03/19 08:43:56;;;;;;;10.30;8.00;;;640.10;1177.60;;;;;;4999617;28;20037;-70
2024/03/19 08:46:22;;;;;;;10.40;8.95;;;614.80;1177.60;;;;;;5004147;28;20487;-70
2024/03/19 08:48:48;;;;;;;10.80;9.25;;;640.10;1152.00;;;;;;5025198;28;20089;-72
2024/03/19 08:51:16;;;;;;;9.48;8.43;;;640.20;1152.00;;;;;;5019822;28;20027;-70
2024/03/19 08:53:42;;;;;;;12.25;9.07;;;640.30;1126.40;;;;;;5018882;28;20032;-77
2024/03/19 08:56:09;;;;;;;10.82;8.38;;;640.70;1100.80;;;;;;5003543;28;20468;-70
2024/03/19 08:58:37;;;;;;;11.25;8.45;;;640.70;1126.40;;;;;;5010431;28;20076;-71
2024/03/19 09:01:03;;;;;;;11.68;9.73;;;640.70;1152.00;;;;;;5010212;28;20040;-70
2024/03/19 09:03:29;;;;;;;11.30;7.97;;;615.10;1152.00;;;;;;5010485;28;20681;-70
2024/03/19 09:06:00;;;;;;;11.48;10.10;;;564.10;1228.80;;;;;;5009383;28;20021;-71
2024/03/19 09:08:26;;;;;;;8.60;7.72;;;538.10;1280.00;;;;;;5009882;28;20105;-70
2024/03/19 09:10:55;;;;;;;9.52;8.15;;;487.30;1305.60;;;;;;5010380;28;20060;-71
2024/03/19 09:13:22;;;;;;;9.23;7.90;;;486.50;1356.80;;;;;;5010266;28;20029;-70
2024/03/19 09:15:48;;;;;;;10.65;8.73;;;461.00;1408.00;;;;;;5010196;28;20026;-69
2024/03/19 09:18:15;;;;;;;16.42;10.55;;;435.70;1433.60;;;;;;5009797;28;20044;-69
2024/03/19 09:20:41;;;;;;;14.57;11.40;;;410.50;1484.80;;;;;;5010361;28;20064;-67
2024/03/19 09:23:07;;;;;;;14.48;11.13;;;410.20;1484.80;;;;;;5010107;28;20342;-68
2024/03/19 09:25:33;;;;;;;13.98;10.68;;;410.20;1484.80;;;;;;5009847;28;20129;-67
2024/03/19 09:28:00;;;;;;;10.80;8.48;;;410.20;1484.80;;;;;;5009849;28;20022;-67
2024/03/19 09:30:26;;;;;;;14.05;9.75;;;410.20;1536.00;;;;;;5009491;28;20046;-68
2024/03/19 09:32:54;;;;;;;10.27;7.70;;;409.90;1536.00;;;;;;5009948;28;20049;-69
2024/03/19 09:35:20;;;;;;;13.20;10.15;;;384.90;1510.40;;;;;;5010333;28;20372;-69
2024/03/19 09:37:46;;;;;;;19.02;12.25;;;384.70;1561.60;;;;;;5009345;28;20033;-67
2024/03/19 09:40:12;;;;;;;17.50;11.38;;;384.60;1587.20;;;;;;5009513;28;20022;-68
2024/03/19 09:42:38;;;;;;;9.98;8.32;;;384.40;1561.60;;;;;;5009649;28;20496;-73
2024/03/19 09:45:05;;;;;;;12.30;7.78;;;384.50;1561.60;;;;;;5009338;28;20061;-70
2024/03/19 09:47:32;;;;;;;13.55;10.13;;;384.00;1587.20;;;;;;5009699;28;20021;-68
2024/03/19 09:50:00;;;;;;;14.63;10.35;;;384.00;1587.20;;;;;;5009682;28;20053;-70
2024/03/19 09:52:28;;;;;;;18.35;13.55;;;359.20;1612.80;;;;;;5009364;28;20461;-68
2024/03/19 09:54:55;;;;;;;16.00;9.82;;;359.10;1612.80;;;;;;5009632;28;20062;-70
2024/03/19 09:57:22;;;;;;;9.43;8.25;;;384.00;1638.40;;;;;;5009655;28;20030;-68
2024/03/19 09:59:48;;;;;;;15.27;9.80;;;384.00;1638.40;;;;;;4991548;28;20484;-67
2024/03/19 10:02:20;;;;;;;11.25;9.50;;;359.30;1612.80;;;;;;5008481;28;20705;-68
2024/03/19 10:04:48;;;;;;;23.85;17.50;;;359.20;1612.80;;;;;;5009040;28;20487;-69
2024/03/19 10:07:21;;;;;;;27.73;21.20;;;359.00;1612.80;;;;;;5008970;28;20021;-68
2024/03/19 10:09:53;;;;;;;15.85;12.85;;;359.00;1587.20;;;;;;5008358;28;20021;-68
2024/03/19 10:12:20;;;;;;;10.53;8.93;;;359.20;1587.20;;;;;;5008936;28;20087;-66
2024/03/19 10:14:47;;;;;;;20.73;12.50;;;384.10;1587.20;;;;;;5008505;28;20026;-67
2024/03/19 10:17:16;;;;;;;16.27;12.88;;;384.10;1612.80;;;;;;5008454;28;20037;-69
2024/03/19 10:19:42;;;;;;;18.90;14.57;;;384.00;1587.20;;;;;;5008705;28;20065;-70
2024/03/19 10:22:11;;;;;;;22.35;15.63;;;359.30;1587.20;;;;;;5008433;28;20030;-74
2024/03/19 10:24:37;;;;;;;128.57;81.45;;;358.80;1612.80;;;;;;5005083;28;20069;-69
2024/03/19 10:27:09;;;;;;;19.63;11.18;;;358.60;1612.80;;;;;;4993609;28;20080;-67
2024/03/19 10:29:36;;;;;;;59.78;36.45;;;358.50;1638.40;;;;;;5005372;28;20041;-70
2024/03/19 10:32:06;;;;;;;19.58;13.20;;;358.40;1638.40;;;;;;5008740;28;20480;-72
2024/03/19 10:34:33;;;;;;;17.15;12.15;;;358.40;1664.00;;;;;;5008486;28;20332;-70
2024/03/19 10:36:59;;;;;;;31.55;22.40;;;358.40;1612.80;;;;;;5008761;28;20045;-71
2024/03/19 10:39:25;;;;;;;16.98;10.27;;;333.40;1612.80;;;;;;5008464;28;20033;-69
2024/03/19 10:41:51;;;;;;;10.60;8.40;;;333.60;1612.80;;;;;;5002744;28;20046;-70
2024/03/19 10:44:21;;;;;;;11.55;7.68;;;333.40;1638.40;;;;;;5015357;28;20029;-71
2024/03/19 10:46:49;;;;;;;14.15;9.77;;;333.10;1638.40;;;;;;4996039;28;20424;-76
2024/03/19 10:49:21;;;;;;;11.73;7.70;;;333.00;1638.40;;;;;;5008664;28;20046;-74
2024/03/19 10:52:04;;;;;;;17.63;12.57;;;333.20;1664.00;;;;;;5009190;28;20030;-71
2024/03/19 10:54:33;;;;;;;15.98;11.68;;;333.20;1664.00;;;;;;5008696;28;20029;-69
2024/03/19 10:57:00;;;;;;;15.15;11.48;;;333.30;1638.40;;;;;;5009184;28;20065;-69
2024/03/19 10:59:38;;;;;;;17.60;11.75;;;333.30;1664.00;;;;;;5008151;28;20087;-70
2024/03/19 11:02:08;;;;;;;18.17;10.85;;;333.20;1664.00;;;;;;5008584;28;20032;-72
2024/03/19 11:04:36;;;;;;;18.10;11.25;;;333.20;1664.00;;;;;;5008591;28;20484;-70
2024/03/19 11:07:03;;;;;;;16.05;11.60;;;333.30;1689.60;;;;;;5008261;28;20096;-71
2024/03/19 11:09:30;;;;;;;15.50;11.82;;;333.60;1689.60;;;;;;5008694;28;20030;-70
2024/03/19 11:11:58;;;;;;;12.32;10.05;;;333.50;1664.00;;;;;;5008480;28;20437;-70
2024/03/19 11:14:24;;;;;;;11.88;9.45;;;333.30;1664.00;;;;;;5008341;28;20029;-70
2024/03/19 11:16:50;;;;;;;13.93;10.15;;;333.20;1638.40;;;;;;5008806;28;20029;-72
2024/03/19 11:19:29;;;;;;;14.50;11.05;;;333.20;1638.40;;;;;;5008555;28;20034;-70
2024/03/19 11:22:00;;;;;;;21.75;15.52;;;333.60;1638.40;;;;;;5008217;28;20496;-69
2024/03/19 11:24:40;;;;;;;14.70;10.70;;;358.40;1664.00;;;;;;5008229;28;20029;-73
2024/03/19 11:27:06;;;;;;;18.98;11.65;;;333.70;1664.00;;;;;;5008463;28;20029;-75
2024/03/19 11:29:37;;;;;;;15.68;12.85;;;333.50;1664.00;;;;;;5008812;28;20050;-72
2024/03/19 11:32:07;;;;;;;18.92;13.68;;;333.20;1664.00;;;;;;5012064;28;20034;-69
2024/03/19 11:34:33;;;;;;;24.70;16.88;;;333.20;1664.00;;;;;;5011766;28;20105;-69
2024/03/19 11:36:59;;;;;;;15.80;10.88;;;333.40;1664.00;;;;;;4999165;28;20057;-71
2024/03/19 11:39:28;;;;;;;26.83;17.92;;;333.60;1638.40;;;;;;5011735;28;20068;-70
2024/03/19 11:41:55;;;;;;;22.20;13.13;;;333.70;1612.80;;;;;;5011868;28;20026;-70
2024/03/19 11:44:22;;;;;;;17.58;9.90;;;333.70;1612.80;;;;;;5011961;28;20052;-71
2024/03/19 11:46:52;;;;;;;16.10;12.00;;;358.40;1638.40;;;;;;5011604;28;20423;-69
2024/03/19 11:49:29;;;;;;;22.10;15.82;;;333.70;1638.40;;;;;;5012247;28;20451;-69
2024/03/19 11:52:00;;;;;;;16.05;10.63;;;333.70;1638.40;;;;;;5012036;28;20029;-75
2024/03/19 11:54:32;;;;;;;19.65;12.25;;;333.70;1612.80;;;;;;5009266;28;20026;-69
2024/03/19 11:56:58;;;;;;;20.40;10.68;;;333.60;1612.80;;;;;;5012114;28;20149;-69
2024/03/19 11:59:25;;;;;;;15.52;9.57;;;333.70;1612.80;;;;;;5011306;28;20539;-75
2024/03/19 12:01:52;;;;;;;20.27;12.75;;;358.40;1587.20;;;;;;5011503;28;20376;-69
2024/03/19 12:04:21;;;;;;;23.63;15.48;;;333.70;1587.20;;;;;;5011415;28;20606;-68